Apollo Beach, Florida
Current Conditions -  °F | °C
As of 11:58 PM on Sunday 23 Nov 2014 (Local Time) from KMCF Reporting Station
Clear Clear  
Wind Chill: 72°   Ceiling: Unl
Heat Index: 72°   Visibility: 10mi
Dew Point: 72°   Wind: 5mph
Humidity: 100%   Direction: 180°S
Pressure: 29.93"   Gusts: NA
Location:  27.77°N, 82.39°W
Report Text: KMCF 240458Z AUTO 18004KT 10SM CLR 22/22 A2993 RMK AO2 SLP138 T02210221 402740202
Loading
Personal Weather Stations






























Interactive Weather Map New forecast layout! Learn more

10-Day Weather Forecast

Advertisements
Track Severe Weather on mobile